sensor_id;sensor_type;location;lat;lon;timestamp;temperature;humidity
26378;DHT22;14078;50.974;6.786;2024-02-04T00:01:20;9.80;99.90
26378;DHT22;14078;50.974;6.786;2024-02-04T00:03:48;9.80;99.90
26378;DHT22;14078;50.974;6.786;2024-02-04T00:06:15;9.90;99.90
26378;DHT22;14078;50.974;6.786;2024-02-04T00:08:42;9.80;99.90
26378;DHT22;14078;50.974;6.786;2024-02-04T00:11:08;9.80;99.90
26378;DHT22;14078;50.974;6.786;2024-02-04T00:13:37;9.90;99.90
26378;DHT22;14078;50.974;6.786;2024-02-04T00:16:04;9.80;99.90
26378;DHT22;14078;50.974;6.786;2024-02-04T00:18:31;9.80;99.90
26378;DHT22;14078;50.974;6.786;2024-02-04T00:20:59;9.80;99.90
26378;DHT22;14078;50.974;6.786;2024-02-04T00:23:26;9.80;99.90
26378;DHT22;14078;50.974;6.786;2024-02-04T00:25:53;9.80;99.90
26378;DHT22;14078;50.974;6.786;2024-02-04T00:28:19;9.80;99.90
26378;DHT22;14078;50.974;6.786;2024-02-04T00:30:46;9.80;99.90
26378;DHT22;14078;50.974;6.786;2024-02-04T00:33:15;9.80;99.90
26378;DHT22;14078;50.974;6.786;2024-02-04T00:35:41;9.80;99.90
26378;DHT22;14078;50.974;6.786;2024-02-04T00:38:09;9.80;99.90
26378;DHT22;14078;50.974;6.786;2024-02-04T00:40:36;9.80;99.90
26378;DHT22;14078;50.974;6.786;2024-02-04T00:43:03;9.80;99.90
26378;DHT22;14078;50.974;6.786;2024-02-04T00:45:29;9.80;99.90
26378;DHT22;14078;50.974;6.786;2024-02-04T00:47:56;9.80;99.90
26378;DHT22;14078;50.974;6.786;2024-02-04T00:50:23;9.80;99.90
26378;DHT22;14078;50.974;6.786;2024-02-04T00:52:49;9.80;99.90
26378;DHT22;14078;50.974;6.786;2024-02-04T00:55:20;9.80;99.90
26378;DHT22;14078;50.974;6.786;2024-02-04T00:57:46;9.80;99.90
26378;DHT22;14078;50.974;6.786;2024-02-04T01:00:14;9.80;99.90
26378;DHT22;14078;50.974;6.786;2024-02-04T01:02:40;9.80;99.90
26378;DHT22;14078;50.974;6.786;2024-02-04T01:05:08;9.80;99.90
26378;DHT22;14078;50.974;6.786;2024-02-04T01:07:34;9.80;99.90
26378;DHT22;14078;50.974;6.786;2024-02-04T01:10:01;9.80;99.90
26378;DHT22;14078;50.974;6.786;2024-02-04T01:12:29;9.80;99.90
26378;DHT22;14078;50.974;6.786;2024-02-04T01:14:55;9.80;99.90
26378;DHT22;14078;50.974;6.786;2024-02-04T01:17:22;9.80;99.90
26378;DHT22;14078;50.974;6.786;2024-02-04T01:19:49;9.80;99.90
26378;DHT22;14078;50.974;6.786;2024-02-04T01:22:15;9.80;99.90
26378;DHT22;14078;50.974;6.786;2024-02-04T01:24:42;9.80;99.90
26378;DHT22;14078;50.974;6.786;2024-02-04T01:27:09;9.80;99.90
26378;DHT22;14078;50.974;6.786;2024-02-04T01:29:37;9.80;99.90
26378;DHT22;14078;50.974;6.786;2024-02-04T01:32:04;9.80;99.90
26378;DHT22;14078;50.974;6.786;2024-02-04T01:34:30;9.80;99.90
26378;DHT22;14078;50.974;6.786;2024-02-04T01:36:57;9.80;99.90
26378;DHT22;14078;50.974;6.786;2024-02-04T01:39:23;9.80;99.90
26378;DHT22;14078;50.974;6.786;2024-02-04T01:41:50;9.80;99.90
26378;DHT22;14078;50.974;6.786;2024-02-04T01:44:17;9.80;99.90
26378;DHT22;14078;50.974;6.786;2024-02-04T01:46:46;9.80;99.90
26378;DHT22;14078;50.974;6.786;2024-02-04T01:49:13;9.80;99.90
26378;DHT22;14078;50.974;6.786;2024-02-04T01:51:39;9.80;99.90
26378;DHT22;14078;50.974;6.786;2024-02-04T01:54:07;9.80;99.90
26378;DHT22;14078;50.974;6.786;2024-02-04T01:56:34;9.90;99.90
26378;DHT22;14078;50.974;6.786;2024-02-04T01:59:02;9.80;99.90
26378;DHT22;14078;50.974;6.786;2024-02-04T02:01:29;9.90;99.90
26378;DHT22;14078;50.974;6.786;2024-02-04T02:03:57;9.90;99.90
26378;DHT22;14078;50.974;6.786;2024-02-04T02:06:24;9.90;99.90
26378;DHT22;14078;50.974;6.786;2024-02-04T02:08:52;9.90;99.90
26378;DHT22;14078;50.974;6.786;2024-02-04T02:11:25;9.90;99.90
26378;DHT22;14078;50.974;6.786;2024-02-04T02:13:59;9.90;99.90
26378;DHT22;14078;50.974;6.786;2024-02-04T02:16:30;9.90;99.90
26378;DHT22;14078;50.974;6.786;2024-02-04T02:19:03;9.90;99.90
26378;DHT22;14078;50.974;6.786;2024-02-04T02:21:44;9.90;99.90
26378;DHT22;14078;50.974;6.786;2024-02-04T02:24:14;9.90;99.90
26378;DHT22;14078;50.974;6.786;2024-02-04T02:26:44;10.00;99.90
26378;DHT22;14078;50.974;6.786;2024-02-04T02:29:11;10.00;99.90
26378;DHT22;14078;50.974;6.786;2024-02-04T02:31:38;9.90;99.90
26378;DHT22;14078;50.974;6.786;2024-02-04T02:34:05;10.00;99.90
26378;DHT22;14078;50.974;6.786;2024-02-04T02:36:45;10.00;99.90
26378;DHT22;14078;50.974;6.786;2024-02-04T02:39:16;10.00;99.90
26378;DHT22;14078;50.974;6.786;2024-02-04T02:41:48;10.00;99.90
26378;DHT22;14078;50.974;6.786;2024-02-04T02:44:17;10.00;99.90
26378;DHT22;14078;50.974;6.786;2024-02-04T02:46:45;10.00;99.90
26378;DHT22;14078;50.974;6.786;2024-02-04T02:49:13;10.00;99.90
26378;DHT22;14078;50.974;6.786;2024-02-04T02:51:40;10.00;99.90
26378;DHT22;14078;50.974;6.786;2024-02-04T02:54:06;10.00;99.90
26378;DHT22;14078;50.974;6.786;2024-02-04T02:56:33;10.00;99.90
26378;DHT22;14078;50.974;6.786;2024-02-04T02:59:01;9.90;99.90
26378;DHT22;14078;50.974;6.786;2024-02-04T03:01:30;10.00;99.90
26378;DHT22;14078;50.974;6.786;2024-02-04T03:03:57;10.00;99.90
26378;DHT22;14078;50.974;6.786;2024-02-04T03:06:23;10.00;99.90
26378;DHT22;14078;50.974;6.786;2024-02-04T03:08:50;10.00;99.90
26378;DHT22;14078;50.974;6.786;2024-02-04T03:11:16;10.00;99.90
26378;DHT22;14078;50.974;6.786;2024-02-04T03:13:43;10.10;99.90
26378;DHT22;14078;50.974;6.786;2024-02-04T03:16:12;10.10;99.90
26378;DHT22;14078;50.974;6.786;2024-02-04T03:18:39;10.10;99.90
26378;DHT22;14078;50.974;6.786;2024-02-04T03:21:12;10.10;99.90
26378;DHT22;14078;50.974;6.786;2024-02-04T03:23:40;10.10;99.90
26378;DHT22;14078;50.974;6.786;2024-02-04T03:26:07;10.10;99.90
26378;DHT22;14078;50.974;6.786;2024-02-04T03:28:33;10.10;99.90
26378;DHT22;14078;50.974;6.786;2024-02-04T03:31:00;10.20;99.90
26378;DHT22;14078;50.974;6.786;2024-02-04T03:33:28;10.20;99.90
26378;DHT22;14078;50.974;6.786;2024-02-04T03:35:55;10.20;99.90
26378;DHT22;14078;50.974;6.786;2024-02-04T03:38:21;10.20;99.90
26378;DHT22;14078;50.974;6.786;2024-02-04T03:40:48;10.20;99.90
26378;DHT22;14078;50.974;6.786;2024-02-04T03:43:15;10.20;99.90
26378;DHT22;14078;50.974;6.786;2024-02-04T03:45:41;10.20;99.90
26378;DHT22;14078;50.974;6.786;2024-02-04T03:48:08;10.20;99.90
26378;DHT22;14078;50.974;6.786;2024-02-04T03:50:37;10.20;99.90
26378;DHT22;14078;50.974;6.786;2024-02-04T03:53:03;10.20;99.90
26378;DHT22;14078;50.974;6.786;2024-02-04T03:55:30;10.20;99.90
26378;DHT22;14078;50.974;6.786;2024-02-04T03:57:57;10.20;99.90
26378;DHT22;14078;50.974;6.786;2024-02-04T04:00:24;10.20;99.90
26378;DHT22;14078;50.974;6.786;2024-02-04T04:02:51;10.20;99.90
26378;DHT22;14078;50.974;6.786;2024-02-04T04:05:17;10.20;99.90
26378;DHT22;14078;50.974;6.786;2024-02-04T04:07:45;10.20;99.90
26378;DHT22;14078;50.974;6.786;2024-02-04T04:10:12;10.20;99.90
26378;DHT22;14078;50.974;6.786;2024-02-04T04:12:39;10.20;99.90
26378;DHT22;14078;50.974;6.786;2024-02-04T04:15:06;10.30;99.90
26378;DHT22;14078;50.974;6.786;2024-02-04T04:17:33;10.30;99.90
26378;DHT22;14078;50.974;6.786;2024-02-04T04:20:00;10.30;99.90
26378;DHT22;14078;50.974;6.786;2024-02-04T04:22:27;10.30;99.90
26378;DHT22;14078;50.974;6.786;2024-02-04T04:24:55;10.30;99.90
26378;DHT22;14078;50.974;6.786;2024-02-04T04:27:23;10.30;99.90
26378;DHT22;14078;50.974;6.786;2024-02-04T04:29:50;10.30;99.90
26378;DHT22;14078;50.974;6.786;2024-02-04T04:32:16;10.30;99.90
26378;DHT22;14078;50.974;6.786;2024-02-04T04:34:43;10.30;99.90
26378;DHT22;14078;50.974;6.786;2024-02-04T04:37:10;10.30;99.90
26378;DHT22;14078;50.974;6.786;2024-02-04T04:39:36;10.30;99.90
26378;DHT22;14078;50.974;6.786;2024-02-04T04:42:05;10.40;99.90
26378;DHT22;14078;50.974;6.786;2024-02-04T04:44:31;10.30;99.90
26378;DHT22;14078;50.974;6.786;2024-02-04T04:46:58;10.30;99.90
26378;DHT22;14078;50.974;6.786;2024-02-04T04:49:24;10.40;99.90
26378;DHT22;14078;50.974;6.786;2024-02-04T04:51:51;10.30;99.90
26378;DHT22;14078;50.974;6.786;2024-02-04T04:54:18;10.30;99.90
26378;DHT22;14078;50.974;6.786;2024-02-04T04:56:44;10.40;99.90
26378;DHT22;14078;50.974;6.786;2024-02-04T04:59:12;10.40;99.90
26378;DHT22;14078;50.974;6.786;2024-02-04T05:01:45;10.40;99.90
26378;DHT22;14078;50.974;6.786;2024-02-04T05:04:11;10.30;99.90
26378;DHT22;14078;50.974;6.786;2024-02-04T05:06:38;10.30;99.90
26378;DHT22;14078;50.974;6.786;2024-02-04T05:09:05;10.30;99.90
26378;DHT22;14078;50.974;6.786;2024-02-04T05:11:32;10.40;99.90
26378;DHT22;14078;50.974;6.786;2024-02-04T05:13:58;10.40;99.90
26378;DHT22;14078;50.974;6.786;2024-02-04T05:16:26;10.40;99.90
26378;DHT22;14078;50.974;6.786;2024-02-04T05:18:53;10.40;99.90
26378;DHT22;14078;50.974;6.786;2024-02-04T05:21:19;10.40;99.90
26378;DHT22;14078;50.974;6.786;2024-02-04T05:23:46;10.40;99.90
26378;DHT22;14078;50.974;6.786;2024-02-04T05:26:13;10.40;99.90
26378;DHT22;14078;50.974;6.786;2024-02-04T05:28:39;10.40;99.90
26378;DHT22;14078;50.974;6.786;2024-02-04T05:31:06;10.40;99.90
26378;DHT22;14078;50.974;6.786;2024-02-04T05:33:34;10.30;99.90
26378;DHT22;14078;50.974;6.786;2024-02-04T05:36:01;10.30;99.90
26378;DHT22;14078;50.974;6.786;2024-02-04T05:38:28;10.30;99.90
26378;DHT22;14078;50.974;6.786;2024-02-04T05:40:55;10.40;99.90
26378;DHT22;14078;50.974;6.786;2024-02-04T05:43:22;10.20;99.90
26378;DHT22;14078;50.974;6.786;2024-02-04T05:45:48;10.30;99.90
26378;DHT22;14078;50.974;6.786;2024-02-04T05:48:15;10.30;99.90
26378;DHT22;14078;50.974;6.786;2024-02-04T05:50:43;10.20;99.90
26378;DHT22;14078;50.974;6.786;2024-02-04T05:53:10;10.20;99.90
26378;DHT22;14078;50.974;6.786;2024-02-04T05:55:36;10.20;99.90
26378;DHT22;14078;50.974;6.786;2024-02-04T05:58:03;10.30;99.90
26378;DHT22;14078;50.974;6.786;2024-02-04T06:00:30;10.20;99.90
26378;DHT22;14078;50.974;6.786;2024-02-04T06:02:56;10.20;99.90
26378;DHT22;14078;50.974;6.786;2024-02-04T06:05:23;10.20;99.90
26378;DHT22;14078;50.974;6.786;2024-02-04T06:07:51;10.20;99.90
26378;DHT22;14078;50.974;6.786;2024-02-04T06:10:18;10.20;99.90
26378;DHT22;14078;50.974;6.786;2024-02-04T06:12:45;10.20;99.90
26378;DHT22;14078;50.974;6.786;2024-02-04T06:15:13;10.30;99.90
26378;DHT22;14078;50.974;6.786;2024-02-04T06:17:40;10.30;99.90
26378;DHT22;14078;50.974;6.786;2024-02-04T06:20:07;10.30;99.90
26378;DHT22;14078;50.974;6.786;2024-02-04T06:22:34;10.30;99.90
26378;DHT22;14078;50.974;6.786;2024-02-04T06:25:03;10.30;99.90
26378;DHT22;14078;50.974;6.786;2024-02-04T06:27:30;10.30;99.90
26378;DHT22;14078;50.974;6.786;2024-02-04T06:29:56;10.30;99.90
26378;DHT22;14078;50.974;6.786;2024-02-04T06:32:23;10.40;99.90
26378;DHT22;14078;50.974;6.786;2024-02-04T06:34:50;10.40;99.90
26378;DHT22;14078;50.974;6.786;2024-02-04T06:37:17;10.30;99.90
26378;DHT22;14078;50.974;6.786;2024-02-04T06:39:43;10.30;99.90
26378;DHT22;14078;50.974;6.786;2024-02-04T06:42:11;10.30;99.90
26378;DHT22;14078;50.974;6.786;2024-02-04T06:44:38;10.30;99.90
26378;DHT22;14078;50.974;6.786;2024-02-04T06:47:05;10.30;99.90
26378;DHT22;14078;50.974;6.786;2024-02-04T06:49:31;10.30;99.90
26378;DHT22;14078;50.974;6.786;2024-02-04T06:51:58;10.30;99.90
26378;DHT22;14078;50.974;6.786;2024-02-04T06:54:25;10.30;99.90
26378;DHT22;14078;50.974;6.786;2024-02-04T06:56:52;10.30;99.90
26378;DHT22;14078;50.974;6.786;2024-02-04T06:59:20;10.20;99.90
26378;DHT22;14078;50.974;6.786;2024-02-04T07:01:46;10.30;99.90
26378;DHT22;14078;50.974;6.786;2024-02-04T07:04:13;10.30;99.90
26378;DHT22;14078;50.974;6.786;2024-02-04T07:06:40;10.20;99.90
26378;DHT22;14078;50.974;6.786;2024-02-04T07:09:06;10.20;99.90
26378;DHT22;14078;50.974;6.786;2024-02-04T07:11:33;10.20;99.90
26378;DHT22;14078;50.974;6.786;2024-02-04T07:14:00;10.30;99.90
26378;DHT22;14078;50.974;6.786;2024-02-04T07:16:28;10.20;99.90
26378;DHT22;14078;50.974;6.786;2024-02-04T07:18:55;10.20;99.90
26378;DHT22;14078;50.974;6.786;2024-02-04T07:21:22;10.20;99.90
26378;DHT22;14078;50.974;6.786;2024-02-04T07:23:48;10.10;99.90
26378;DHT22;14078;50.974;6.786;2024-02-04T07:26:15;10.10;99.90
26378;DHT22;14078;50.974;6.786;2024-02-04T07:28:42;10.10;99.90
26378;DHT22;14078;50.974;6.786;2024-02-04T07:31:08;10.10;99.90
26378;DHT22;14078;50.974;6.786;2024-02-04T07:33:37;10.10;99.90
26378;DHT22;14078;50.974;6.786;2024-02-04T07:36:04;10.20;99.90
26378;DHT22;14078;50.974;6.786;2024-02-04T07:38:30;10.20;99.90
26378;DHT22;14078;50.974;6.786;2024-02-04T07:40:57;10.20;99.90
26378;DHT22;14078;50.974;6.786;2024-02-04T07:43:25;10.20;99.90
26378;DHT22;14078;50.974;6.786;2024-02-04T07:45:51;10.20;99.90
26378;DHT22;14078;50.974;6.786;2024-02-04T07:48:18;10.20;99.90
26378;DHT22;14078;50.974;6.786;2024-02-04T07:50:46;10.20;99.90
26378;DHT22;14078;50.974;6.786;2024-02-04T07:53:13;10.20;99.90
26378;DHT22;14078;50.974;6.786;2024-02-04T07:55:40;10.20;99.90
26378;DHT22;14078;50.974;6.786;2024-02-04T07:58:06;10.20;99.90
26378;DHT22;14078;50.974;6.786;2024-02-04T08:00:33;10.20;99.90
26378;DHT22;14078;50.974;6.786;2024-02-04T08:03:00;10.20;99.90
26378;DHT22;14078;50.974;6.786;2024-02-04T08:05:26;10.30;99.90
26378;DHT22;14078;50.974;6.786;2024-02-04T08:07:54;10.30;99.90
26378;DHT22;14078;50.974;6.786;2024-02-04T08:10:21;10.30;99.90
26378;DHT22;14078;50.974;6.786;2024-02-04T08:12:47;10.30;99.90
26378;DHT22;14078;50.974;6.786;2024-02-04T08:15:16;10.30;99.90
26378;DHT22;14078;50.974;6.786;2024-02-04T08:17:43;10.30;99.90
26378;DHT22;14078;50.974;6.786;2024-02-04T08:20:10;10.30;99.90
26378;DHT22;14078;50.974;6.786;2024-02-04T08:22:37;10.30;99.90
26378;DHT22;14078;50.974;6.786;2024-02-04T08:25:06;10.30;99.90
26378;DHT22;14078;50.974;6.786;2024-02-04T08:27:33;10.40;99.90
26378;DHT22;14078;50.974;6.786;2024-02-04T08:29:59;10.30;99.90
26378;DHT22;14078;50.974;6.786;2024-02-04T08:32:26;10.40;99.90
26378;DHT22;14078;50.974;6.786;2024-02-04T08:34:52;10.40;99.90
26378;DHT22;14078;50.974;6.786;2024-02-04T08:37:19;10.40;99.90
26378;DHT22;14078;50.974;6.786;2024-02-04T08:39:46;10.40;99.90
26378;DHT22;14078;50.974;6.786;2024-02-04T08:42:13;10.40;99.90
26378;DHT22;14078;50.974;6.786;2024-02-04T08:44:40;10.40;99.90
26378;DHT22;14078;50.974;6.786;2024-02-04T08:47:08;10.40;99.90
26378;DHT22;14078;50.974;6.786;2024-02-04T08:49:35;10.40;99.90
26378;DHT22;14078;50.974;6.786;2024-02-04T08:52:02;10.40;99.90
26378;DHT22;14078;50.974;6.786;2024-02-04T08:54:29;10.50;99.90
26378;DHT22;14078;50.974;6.786;2024-02-04T08:56:56;10.50;99.90
26378;DHT22;14078;50.974;6.786;2024-02-04T08:59:24;10.50;99.90
26378;DHT22;14078;50.974;6.786;2024-02-04T09:01:50;10.40;99.90
26378;DHT22;14078;50.974;6.786;2024-02-04T09:04:17;10.50;99.90
26378;DHT22;14078;50.974;6.786;2024-02-04T09:06:45;10.50;99.90
26378;DHT22;14078;50.974;6.786;2024-02-04T09:09:12;10.60;99.90
26378;DHT22;14078;50.974;6.786;2024-02-04T09:11:39;10.60;99.90
26378;DHT22;14078;50.974;6.786;2024-02-04T09:14:05;10.60;99.90
26378;DHT22;14078;50.974;6.786;2024-02-04T09:16:33;10.60;99.90
26378;DHT22;14078;50.974;6.786;2024-02-04T09:19:00;10.70;99.90
26378;DHT22;14078;50.974;6.786;2024-02-04T09:21:27;10.70;99.90
26378;DHT22;14078;50.974;6.786;2024-02-04T09:23:53;10.70;99.90
26378;DHT22;14078;50.974;6.786;2024-02-04T09:26:21;10.70;99.90
26378;DHT22;14078;50.974;6.786;2024-02-04T09:28:48;10.70;99.90
26378;DHT22;14078;50.974;6.786;2024-02-04T09:31:15;10.80;99.90
26378;DHT22;14078;50.974;6.786;2024-02-04T09:33:43;10.80;99.90
26378;DHT22;14078;50.974;6.786;2024-02-04T09:36:10;10.80;99.90
26378;DHT22;14078;50.974;6.786;2024-02-04T09:38:36;10.80;99.90
26378;DHT22;14078;50.974;6.786;2024-02-04T09:41:04;10.70;99.90
26378;DHT22;14078;50.974;6.786;2024-02-04T09:43:31;10.70;99.90
26378;DHT22;14078;50.974;6.786;2024-02-04T09:45:59;10.70;99.90
26378;DHT22;14078;50.974;6.786;2024-02-04T09:48:30;10.70;99.90
26378;DHT22;14078;50.974;6.786;2024-02-04T09:50:59;10.70;99.90
26378;DHT22;14078;50.974;6.786;2024-02-04T09:53:32;10.70;99.90
26378;DHT22;14078;50.974;6.786;2024-02-04T09:56:02;10.70;99.90
26378;DHT22;14078;50.974;6.786;2024-02-04T09:58:29;10.80;99.90
26378;DHT22;14078;50.974;6.786;2024-02-04T10:00:55;10.80;99.90
26378;DHT22;14078;50.974;6.786;2024-02-04T10:03:22;10.90;99.90
26378;DHT22;14078;50.974;6.786;2024-02-04T10:05:49;10.80;99.90
26378;DHT22;14078;50.974;6.786;2024-02-04T10:08:17;10.80;99.90
26378;DHT22;14078;50.974;6.786;2024-02-04T10:10:44;10.80;99.90
26378;DHT22;14078;50.974;6.786;2024-02-04T10:13:11;10.80;99.90
26378;DHT22;14078;50.974;6.786;2024-02-04T10:15:38;10.80;99.90
26378;DHT22;14078;50.974;6.786;2024-02-04T10:18:05;10.80;99.90
26378;DHT22;14078;50.974;6.786;2024-02-04T10:20:32;10.80;99.90
26378;DHT22;14078;50.974;6.786;2024-02-04T10:22:59;10.80;99.90
26378;DHT22;14078;50.974;6.786;2024-02-04T10:25:27;10.80;99.90
26378;DHT22;14078;50.974;6.786;2024-02-04T10:27:54;10.80;99.90
26378;DHT22;14078;50.974;6.786;2024-02-04T10:30:21;10.80;99.90
26378;DHT22;14078;50.974;6.786;2024-02-04T10:32:50;10.80;99.90
26378;DHT22;14078;50.974;6.786;2024-02-04T10:35:17;10.90;99.90
26378;DHT22;14078;50.974;6.786;2024-02-04T10:37:44;10.90;99.90
26378;DHT22;14078;50.974;6.786;2024-02-04T10:40:11;10.90;99.90
26378;DHT22;14078;50.974;6.786;2024-02-04T10:42:42;11.10;99.90
26378;DHT22;14078;50.974;6.786;2024-02-04T10:45:10;11.20;99.90
26378;DHT22;14078;50.974;6.786;2024-02-04T10:47:38;11.30;99.90
26378;DHT22;14078;50.974;6.786;2024-02-04T10:50:06;11.30;99.90
26378;DHT22;14078;50.974;6.786;2024-02-04T10:52:36;11.30;99.90
26378;DHT22;14078;50.974;6.786;2024-02-04T10:55:07;11.40;99.90
26378;DHT22;14078;50.974;6.786;2024-02-04T10:57:35;11.40;99.90
26378;DHT22;14078;50.974;6.786;2024-02-04T11:00:04;11.50;99.90
26378;DHT22;14078;50.974;6.786;2024-02-04T11:02:34;11.40;99.90
26378;DHT22;14078;50.974;6.786;2024-02-04T11:05:03;11.40;99.90
26378;DHT22;14078;50.974;6.786;2024-02-04T11:07:32;11.30;99.90
26378;DHT22;14078;50.974;6.786;2024-02-04T11:09:59;11.40;99.90
26378;DHT22;14078;50.974;6.786;2024-02-04T11:12:27;11.30;99.90
26378;DHT22;14078;50.974;6.786;2024-02-04T11:14:59;11.40;99.90
26378;DHT22;14078;50.974;6.786;2024-02-04T11:17:43;11.40;99.90
26378;DHT22;14078;50.974;6.786;2024-02-04T11:20:26;11.40;99.90
26378;DHT22;14078;50.974;6.786;2024-02-04T11:23:10;11.40;99.90
26378;DHT22;14078;50.974;6.786;2024-02-04T11:25:45;11.50;99.90
26378;DHT22;14078;50.974;6.786;2024-02-04T11:28:13;11.40;99.90
26378;DHT22;14078;50.974;6.786;2024-02-04T11:30:43;11.40;99.90
26378;DHT22;14078;50.974;6.786;2024-02-04T11:33:12;11.40;99.90
26378;DHT22;14078;50.974;6.786;2024-02-04T11:35:39;11.50;99.90
26378;DHT22;14078;50.974;6.786;2024-02-04T11:38:06;11.50;99.90
26378;DHT22;14078;50.974;6.786;2024-02-04T11:40:34;11.40;99.90
26378;DHT22;14078;50.974;6.786;2024-02-04T11:43:06;11.40;99.90
26378;DHT22;14078;50.974;6.786;2024-02-04T11:45:32;11.30;99.90
26378;DHT22;14078;50.974;6.786;2024-02-04T11:48:07;11.40;99.90
26378;DHT22;14078;50.974;6.786;2024-02-04T11:50:35;11.40;99.90
26378;DHT22;14078;50.974;6.786;2024-02-04T11:53:05;11.50;99.90
26378;DHT22;14078;50.974;6.786;2024-02-04T11:55:33;11.50;99.90
26378;DHT22;14078;50.974;6.786;2024-02-04T11:58:00;11.50;99.90
26378;DHT22;14078;50.974;6.786;2024-02-04T12:00:27;11.60;99.90
26378;DHT22;14078;50.974;6.786;2024-02-04T12:03:00;11.70;99.90
26378;DHT22;14078;50.974;6.786;2024-02-04T12:05:28;11.60;99.90
26378;DHT22;14078;50.974;6.786;2024-02-04T12:07:56;11.50;99.90
26378;DHT22;14078;50.974;6.786;2024-02-04T12:10:23;11.50;99.90
26378;DHT22;14078;50.974;6.786;2024-02-04T12:12:49;11.40;99.90
26378;DHT22;14078;50.974;6.786;2024-02-04T12:15:17;11.30;99.90
26378;DHT22;14078;50.974;6.786;2024-02-04T12:17:43;11.30;99.90
26378;DHT22;14078;50.974;6.786;2024-02-04T12:20:11;11.20;99.90
26378;DHT22;14078;50.974;6.786;2024-02-04T12:22:38;11.20;99.90
26378;DHT22;14078;50.974;6.786;2024-02-04T12:25:07;11.10;99.90
26378;DHT22;14078;50.974;6.786;2024-02-04T12:27:34;11.00;99.90
26378;DHT22;14078;50.974;6.786;2024-02-04T12:30:01;11.00;99.90
26378;DHT22;14078;50.974;6.786;2024-02-04T12:32:27;11.00;99.90
26378;DHT22;14078;50.974;6.786;2024-02-04T12:34:54;10.90;99.90
26378;DHT22;14078;50.974;6.786;2024-02-04T12:37:22;10.90;99.90
26378;DHT22;14078;50.974;6.786;2024-02-04T12:39:50;10.90;99.90
26378;DHT22;14078;50.974;6.786;2024-02-04T12:42:18;10.90;99.90
26378;DHT22;14078;50.974;6.786;2024-02-04T12:44:46;10.90;99.90
26378;DHT22;14078;50.974;6.786;2024-02-04T12:47:13;10.80;99.90
26378;DHT22;14078;50.974;6.786;2024-02-04T12:49:41;10.80;99.90
26378;DHT22;14078;50.974;6.786;2024-02-04T12:52:08;10.80;99.90
26378;DHT22;14078;50.974;6.786;2024-02-04T12:54:41;10.70;99.90
26378;DHT22;14078;50.974;6.786;2024-02-04T12:57:09;10.70;99.90
26378;DHT22;14078;50.974;6.786;2024-02-04T12:59:38;10.70;99.90
26378;DHT22;14078;50.974;6.786;2024-02-04T13:02:07;10.70;99.90
26378;DHT22;14078;50.974;6.786;2024-02-04T13:04:34;10.60;99.90
26378;DHT22;14078;50.974;6.786;2024-02-04T13:07:01;10.60;99.90
26378;DHT22;14078;50.974;6.786;2024-02-04T13:09:28;10.60;99.90
26378;DHT22;14078;50.974;6.786;2024-02-04T13:12:03;10.60;99.90
26378;DHT22;14078;50.974;6.786;2024-02-04T13:14:30;10.60;99.90
26378;DHT22;14078;50.974;6.786;2024-02-04T13:16:58;10.60;99.90
26378;DHT22;14078;50.974;6.786;2024-02-04T13:19:24;10.60;99.90
26378;DHT22;14078;50.974;6.786;2024-02-04T13:21:51;10.60;99.90
26378;DHT22;14078;50.974;6.786;2024-02-04T13:24:18;10.60;99.90
26378;DHT22;14078;50.974;6.786;2024-02-04T13:26:44;10.60;99.90
26378;DHT22;14078;50.974;6.786;2024-02-04T13:29:11;10.60;99.90
26378;DHT22;14078;50.974;6.786;2024-02-04T13:31:38;10.60;99.90
26378;DHT22;14078;50.974;6.786;2024-02-04T13:34:06;10.50;99.90
26378;DHT22;14078;50.974;6.786;2024-02-04T13:36:33;10.50;99.90
26378;DHT22;14078;50.974;6.786;2024-02-04T13:38:59;10.60;99.90
26378;DHT22;14078;50.974;6.786;2024-02-04T13:41:26;10.50;99.90
26378;DHT22;14078;50.974;6.786;2024-02-04T13:43:53;10.50;99.90
26378;DHT22;14078;50.974;6.786;2024-02-04T13:46:19;10.50;99.90
26378;DHT22;14078;50.974;6.786;2024-02-04T13:48:46;10.50;99.90
26378;DHT22;14078;50.974;6.786;2024-02-04T13:51:14;10.60;99.90
26378;DHT22;14078;50.974;6.786;2024-02-04T13:53:41;10.60;99.90
26378;DHT22;14078;50.974;6.786;2024-02-04T13:56:07;10.60;99.90
26378;DHT22;14078;50.974;6.786;2024-02-04T13:58:34;10.60;99.90
26378;DHT22;14078;50.974;6.786;2024-02-04T14:01:01;10.70;99.90
26378;DHT22;14078;50.974;6.786;2024-02-04T14:03:28;10.60;99.90
26378;DHT22;14078;50.974;6.786;2024-02-04T14:05:55;10.70;99.90
26378;DHT22;14078;50.974;6.786;2024-02-04T14:08:23;10.70;99.90
26378;DHT22;14078;50.974;6.786;2024-02-04T14:10:50;10.70;99.90
26378;DHT22;14078;50.974;6.786;2024-02-04T14:13:16;10.70;99.90
26378;DHT22;14078;50.974;6.786;2024-02-04T14:15:43;10.70;99.90
26378;DHT22;14078;50.974;6.786;2024-02-04T14:18:10;10.70;99.90
26378;DHT22;14078;50.974;6.786;2024-02-04T14:20:36;10.80;99.90
26378;DHT22;14078;50.974;6.786;2024-02-04T14:23:03;10.70;99.90
26378;DHT22;14078;50.974;6.786;2024-02-04T14:25:31;10.70;99.90
26378;DHT22;14078;50.974;6.786;2024-02-04T14:27:58;10.80;99.90
26378;DHT22;14078;50.974;6.786;2024-02-04T14:30:25;10.80;99.90
26378;DHT22;14078;50.974;6.786;2024-02-04T14:32:51;10.80;99.90
26378;DHT22;14078;50.974;6.786;2024-02-04T14:35:18;10.80;99.90
26378;DHT22;14078;50.974;6.786;2024-02-04T14:37:45;10.80;99.90
26378;DHT22;14078;50.974;6.786;2024-02-04T14:40:12;10.80;99.90
26378;DHT22;14078;50.974;6.786;2024-02-04T14:42:40;10.90;99.90
26378;DHT22;14078;50.974;6.786;2024-02-04T14:45:08;10.90;99.90
26378;DHT22;14078;50.974;6.786;2024-02-04T14:47:36;10.90;99.90
26378;DHT22;14078;50.974;6.786;2024-02-04T14:50:03;10.90;99.90
26378;DHT22;14078;50.974;6.786;2024-02-04T14:52:29;10.90;99.90
26378;DHT22;14078;50.974;6.786;2024-02-04T14:54:56;11.00;99.90
26378;DHT22;14078;50.974;6.786;2024-02-04T14:57:23;11.00;99.90
26378;DHT22;14078;50.974;6.786;2024-02-04T14:59:51;11.10;99.90
26378;DHT22;14078;50.974;6.786;2024-02-04T15:02:17;11.00;99.90
26378;DHT22;14078;50.974;6.786;2024-02-04T15:04:44;11.10;99.90
26378;DHT22;14078;50.974;6.786;2024-02-04T15:07:11;11.10;99.90
26378;DHT22;14078;50.974;6.786;2024-02-04T15:09:38;11.00;99.90
26378;DHT22;14078;50.974;6.786;2024-02-04T15:12:05;11.00;99.90
26378;DHT22;14078;50.974;6.786;2024-02-04T15:14:32;11.00;99.90
26378;DHT22;14078;50.974;6.786;2024-02-04T15:17:01;11.00;99.90
26378;DHT22;14078;50.974;6.786;2024-02-04T15:19:28;11.00;99.90
26378;DHT22;14078;50.974;6.786;2024-02-04T15:21:56;11.00;99.90
26378;DHT22;14078;50.974;6.786;2024-02-04T15:24:23;11.00;99.90
26378;DHT22;14078;50.974;6.786;2024-02-04T15:26:52;11.00;99.90
26378;DHT22;14078;50.974;6.786;2024-02-04T15:29:19;11.00;99.90
26378;DHT22;14078;50.974;6.786;2024-02-04T15:31:47;11.00;99.90
26378;DHT22;14078;50.974;6.786;2024-02-04T15:34:16;11.00;99.90